Time;durP1;ratioP1;P1;durP2;ratioP2;P2;SDS_P1;SDS_P2;PMS_P1;PMS_P2;Temp;Humidity;BMP_temperature;BMP_pressure;BME280_temperature;BME280_humidity;BME280_pressure;Samples;Min_cycle;Max_cycle;Signal;HPM_P1;HPM_P2
2021/11/12 00:13:43;;;;;;;64.75;32.85;;;;;;;;;;5014660;28;20196;-71
2021/11/12 00:16:09;;;;;;;60.95;33.47;;;;;;;;;;5025498;28;20278;-72
2021/11/12 00:18:37;;;;;;;58.88;34.15;;;;;;;;;;5020003;28;20174;-71
2021/11/12 00:21:04;;;;;;;62.67;33.88;;;;;;;;;;5023610;28;20178;-72
2021/11/12 00:23:31;;;;;;;58.53;32.53;;;;;;;;;;5023603;28;20190;-72
2021/11/12 00:25:58;;;;;;;59.20;32.47;;;;;;;;;;5007920;28;20268;-71
2021/11/12 00:28:26;;;;;;;65.75;32.75;;;;;;;;;;5025177;28;20243;-71
2021/11/12 00:33:49;;;;;;;60.08;31.15;;;;;;;;;;5013138;28;20670;-71
2021/11/12 00:38:49;;;;;;;55.67;29.73;;;;;;;;;;5013068;28;20480;-71
2021/11/12 00:41:36;;;;;;;53.65;30.60;;;;;;;;;;5009056;28;20190;-72
2021/11/12 00:44:30;;;;;;;60.03;32.47;;;;;;;;;;5016888;28;20182;-72
2021/11/12 00:50:22;;;;;;;59.90;32.17;;;;;;;;;;5015905;28;20301;-71
2021/11/12 00:55:19;;;;;;;60.40;33.10;;;;;;;;;;5021724;28;20669;-71
2021/11/12 00:57:45;;;;;;;63.55;34.97;;;;;;;;;;5006963;28;20240;-71
2021/11/12 01:00:12;;;;;;;62.00;34.05;;;;;;;;;;5022910;28;20226;-71
2021/11/12 01:02:38;;;;;;;64.03;34.33;;;;;;;;;;5008938;28;20620;-72
2021/11/12 01:05:05;;;;;;;69.30;35.13;;;;;;;;;;5021711;28;20250;-72
2021/11/12 01:07:31;;;;;;;63.37;34.23;;;;;;;;;;5006381;28;20263;-72
2021/11/12 01:09:57;;;;;;;65.28;35.50;;;;;;;;;;5019164;28;20174;-71
2021/11/12 01:12:23;;;;;;;65.07;35.17;;;;;;;;;;5011784;28;20209;-73
2021/11/12 01:14:49;;;;;;;71.37;35.80;;;;;;;;;;5017772;28;20187;-71
2021/11/12 01:17:14;;;;;;;63.83;33.97;;;;;;;;;;5009589;28;20190;-71
2021/11/12 01:19:40;;;;;;;62.43;34.97;;;;;;;;;;5022716;28;20828;-71
2021/11/12 01:22:05;;;;;;;64.93;35.00;;;;;;;;;;5015347;28;20673;-71
2021/11/12 01:24:31;;;;;;;63.67;34.53;;;;;;;;;;5017428;28;20587;-71
2021/11/12 01:26:57;;;;;;;64.57;36.00;;;;;;;;;;5019553;28;20241;-71
2021/11/12 01:29:22;;;;;;;65.13;35.20;;;;;;;;;;5016008;28;20228;-71
2021/11/12 01:31:48;;;;;;;64.17;35.13;;;;;;;;;;5023590;28;20532;-71
2021/11/12 01:34:14;;;;;;;67.77;34.77;;;;;;;;;;5011819;28;20612;-71
2021/11/12 01:36:44;;;;;;;70.27;35.00;;;;;;;;;;5020458;28;20194;-72
2021/11/12 01:39:20;;;;;;;66.37;34.43;;;;;;;;;;5014526;28;20257;-71
2021/11/12 01:41:49;;;;;;;64.57;32.80;;;;;;;;;;5016617;28;20720;-71
2021/11/12 01:44:17;;;;;;;66.87;33.80;;;;;;;;;;5008693;28;20206;-71
2021/11/12 01:46:59;;;;;;;69.17;35.33;;;;;;;;;;5022248;28;20194;-71
2021/11/12 01:52:30;;;;;;;67.07;32.97;;;;;;;;;;5011614;28;20676;-71
2021/11/12 01:59:50;;;;;;;77.60;35.77;;;;;;;;;;5009899;28;20201;-72
2021/11/12 02:02:16;;;;;;;68.43;35.33;;;;;;;;;;5018259;28;20191;-71
2021/11/12 02:04:42;;;;;;;68.93;35.17;;;;;;;;;;5015860;28;20229;-71
2021/11/12 02:07:09;;;;;;;68.97;35.63;;;;;;;;;;5016182;28;20211;-71
2021/11/12 02:09:34;;;;;;;74.17;36.63;;;;;;;;;;5011659;28;20594;-71
2021/11/12 02:14:42;;;;;;;66.63;34.70;;;;;;;;;;5011760;28;20251;-71
2021/11/12 02:17:22;;;;;;;69.70;36.95;;;;;;;;;;5019547;28;20547;-70
2021/11/12 02:20:04;;;;;;;74.63;36.40;;;;;;;;;;5014051;28;20190;-71
2021/11/12 02:22:34;;;;;;;67.53;36.20;;;;;;;;;;5023857;28;20177;-71
2021/11/12 02:25:27;;;;;;;76.27;37.20;;;;;;;;;;5020071;28;20189;-71
2021/11/12 02:28:19;;;;;;;74.20;37.05;;;;;;;;;;5020688;28;20273;-71
2021/11/12 02:30:38;;;;;;;67.93;36.67;;;;;;;;;;5015342;28;20194;-71
2021/11/12 02:33:08;;;;;;;72.97;39.03;;;;;;;;;;5023507;28;20201;-71
2021/11/12 02:35:37;;;;;;;72.13;35.75;;;;;;;;;;5034059;28;20305;-71
2021/11/12 02:38:04;;;;;;;70.90;37.35;;;;;;;;;;5027530;28;20178;-71
2021/11/12 02:40:33;;;;;;;80.80;38.20;;;;;;;;;;5024146;28;20646;-71
2021/11/12 02:43:00;;;;;;;71.20;36.65;;;;;;;;;;5014244;28;20201;-71
2021/11/12 02:45:26;;;;;;;73.63;37.13;;;;;;;;;;5027224;28;20210;-71
2021/11/12 02:47:52;;;;;;;72.20;36.07;;;;;;;;;;5013767;28;20677;-71
2021/11/12 02:50:19;;;;;;;75.13;38.03;;;;;;;;;;5027435;28;20191;-71
2021/11/12 02:52:48;;;;;;;79.47;38.38;;;;;;;;;;5017461;28;20531;-70
2021/11/12 02:55:14;;;;;;;77.38;37.33;;;;;;;;;;5021754;28;20190;-70
2021/11/12 02:57:41;;;;;;;74.60;36.67;;;;;;;;;;5015798;28;20277;-71
2021/11/12 03:00:08;;;;;;;77.93;37.70;;;;;;;;;;5020338;28;20244;-71
2021/11/12 03:02:34;;;;;;;69.85;35.58;;;;;;;;;;5013590;28;20210;-71
2021/11/12 03:05:00;;;;;;;74.27;37.43;;;;;;;;;;5023953;28;20218;-71
2021/11/12 03:07:25;;;;;;;76.70;37.97;;;;;;;;;;5017290;28;20210;-71
2021/11/12 03:09:51;;;;;;;72.18;37.13;;;;;;;;;;5024073;28;20174;-71
2021/11/12 03:12:18;;;;;;;78.47;37.23;;;;;;;;;;5022915;28;20576;-71
2021/11/12 03:14:44;;;;;;;68.72;36.75;;;;;;;;;;5009471;28;20607;-71
2021/11/12 03:17:09;;;;;;;76.68;36.60;;;;;;;;;;5022043;28;20210;-71
2021/11/12 03:19:35;;;;;;;72.10;37.45;;;;;;;;;;5017582;28;20188;-71
2021/11/12 03:22:04;;;;;;;76.43;38.03;;;;;;;;;;5022512;28;20262;-72
2021/11/12 03:24:36;;;;;;;73.22;36.67;;;;;;;;;;5018501;28;20269;-72
2021/11/12 04:17:09;;;;;;;61.80;32.27;;;;;;;;;;5011516;28;20281;-71
2021/11/12 04:19:08;;;;;;;64.83;31.67;;;;;;;;;;5021847;28;20225;-72
2021/11/12 04:40:39;;;;;;;75.53;36.67;;;;;;;;;;5021391;28;20229;-72
2021/11/12 05:55:53;;;;;;;71.17;32.87;;;;;;;;;;5019610;28;20224;-71
2021/11/12 05:58:18;;;;;;;66.10;32.37;;;;;;;;;;5024700;28;20590;-71
2021/11/12 06:00:45;;;;;;;63.63;30.80;;;;;;;;;;5021530;28;20695;-72
2021/11/12 06:03:10;;;;;;;72.57;32.73;;;;;;;;;;5011358;28;20273;-71
2021/11/12 06:05:35;;;;;;;64.37;31.83;;;;;;;;;;5026801;28;20218;-72
2021/11/12 06:08:01;;;;;;;67.13;32.00;;;;;;;;;;5017179;28;20194;-71
2021/11/12 06:10:26;;;;;;;65.27;33.07;;;;;;;;;;5023922;28;20267;-72
2021/11/12 06:12:51;;;;;;;69.63;31.83;;;;;;;;;;5012134;28;20190;-71
2021/11/12 06:15:17;;;;;;;63.77;31.50;;;;;;;;;;5023753;28;20191;-72
2021/11/12 06:17:43;;;;;;;66.83;31.73;;;;;;;;;;5013560;28;20193;-72
2021/11/12 06:20:10;;;;;;;70.93;32.87;;;;;;;;;;4328219;28;10000842;-72
2021/11/12 06:22:36;;;;;;;66.93;33.33;;;;;;;;;;5012588;28;20280;-72
2021/11/12 06:25:03;;;;;;;69.27;33.07;;;;;;;;;;5022002;28;20201;-72
2021/11/12 06:27:28;;;;;;;67.53;33.17;;;;;;;;;;5015239;28;20208;-72
2021/11/12 06:29:54;;;;;;;64.70;32.53;;;;;;;;;;5020010;28;20198;-72
2021/11/12 06:32:19;;;;;;;65.13;33.57;;;;;;;;;;5017735;28;20804;-72
2021/11/12 06:34:45;;;;;;;67.07;33.10;;;;;;;;;;5016484;28;20204;-72
2021/11/12 06:37:11;;;;;;;68.60;33.40;;;;;;;;;;5020989;28;20285;-72
2021/11/12 06:39:37;;;;;;;70.87;33.73;;;;;;;;;;5014710;28;20190;-72
2021/11/12 06:42:10;;;;;;;68.97;32.47;;;;;;;;;;5019040;28;20569;-72
2021/11/12 06:49:16;;;;;;;67.63;34.47;;;;;;;;;;5015146;28;20194;-72
2021/11/12 06:50:15;;;;;;;67.07;34.23;;;;;;;;;;5009759;28;20251;-71
2021/11/12 06:52:44;;;;;;;67.07;34.07;;;;;;;;;;5023157;28;20195;-71
2021/11/12 06:55:12;;;;;;;66.93;33.80;;;;;;;;;;5017009;28;20197;-72
2021/11/12 06:57:38;;;;;;;72.97;34.33;;;;;;;;;;5024701;28;20186;-72
2021/11/12 07:00:06;;;;;;;67.53;35.53;;;;;;;;;;5014576;28;20589;-72
2021/11/12 07:02:32;;;;;;;63.70;31.83;;;;;;;;;;5022353;28;20606;-72
2021/11/12 07:04:57;;;;;;;70.77;34.67;;;;;;;;;;5017627;28;20292;-72
2021/11/12 07:07:23;;;;;;;68.33;32.87;;;;;;;;;;5019262;28;20198;-72
2021/11/12 07:09:50;;;;;;;74.23;33.53;;;;;;;;;;5007586;28;20201;-72
2021/11/12 07:12:16;;;;;;;66.30;32.80;;;;;;;;;;5024449;28;20213;-71
2021/11/12 07:14:43;;;;;;;61.10;31.93;;;;;;;;;;5012236;28;20211;-71
2021/11/12 07:17:08;;;;;;;71.17;33.80;;;;;;;;;;5023795;28;20178;-71
2021/11/12 07:19:34;;;;;;;72.20;34.70;;;;;;;;;;5020153;28;20193;-71
2021/11/12 07:22:00;;;;;;;75.60;34.57;;;;;;;;;;5009833;28;20613;-71
2021/11/12 07:24:27;;;;;;;68.60;34.70;;;;;;;;;;5027481;28;20186;-71
2021/11/12 07:26:53;;;;;;;77.23;34.67;;;;;;;;;;5012197;28;20206;-71
2021/11/12 07:29:20;;;;;;;68.17;33.40;;;;;;;;;;5019346;28;20612;-71
2021/11/12 07:31:46;;;;;;;72.57;34.73;;;;;;;;;;5007942;28;20186;-71
2021/11/12 07:34:12;;;;;;;76.37;35.67;;;;;;;;;;5015146;28;20210;-72
2021/11/12 07:36:40;;;;;;;64.57;34.80;;;;;;;;;;5009376;28;20483;-72
2021/11/12 07:39:17;;;;;;;66.83;34.57;;;;;;;;;;5020844;28;20183;-72
2021/11/12 07:42:05;;;;;;;70.53;34.73;;;;;;;;;;5009400;28;20178;-72
2021/11/12 07:44:41;;;;;;;75.40;37.47;;;;;;;;;;5023099;28;20194;-72
2021/11/12 07:47:14;;;;;;;73.20;37.07;;;;;;;;;;5010539;28;20692;-72
2021/11/12 07:49:40;;;;;;;73.30;35.93;;;;;;;;;;5020521;28;20206;-71
2021/11/12 07:52:06;;;;;;;80.63;37.93;;;;;;;;;;5012902;28;20236;-71
2021/11/12 07:54:32;;;;;;;82.30;39.33;;;;;;;;;;5020758;28;20273;-72
2021/11/12 07:56:59;;;;;;;78.97;38.70;;;;;;;;;;5012230;28;20245;-72
2021/11/12 07:59:25;;;;;;;83.07;39.60;;;;;;;;;;5017611;28;20244;-72
2021/11/12 08:01:50;;;;;;;78.07;38.50;;;;;;;;;;5019455;28;20269;-72
2021/11/12 08:04:15;;;;;;;76.90;39.13;;;;;;;;;;5010007;28;20448;-71
2021/11/12 08:06:41;;;;;;;78.37;38.10;;;;;;;;;;5017023;28;20300;-71
2021/11/12 08:09:10;;;;;;;74.63;38.90;;;;;;;;;;5012267;28;20292;-72
2021/11/12 08:11:40;;;;;;;75.20;38.70;;;;;;;;;;5021112;28;20186;-71
2021/11/12 08:14:10;;;;;;;78.43;37.30;;;;;;;;;;5012452;28;20193;-71
2021/11/12 08:19:33;;;;;;;74.83;36.93;;;;;;;;;;5013258;28;20607;-71
2021/11/12 08:22:12;;;;;;;76.83;37.77;;;;;;;;;;5020643;28;20213;-71
2021/11/12 08:24:53;;;;;;;73.37;36.70;;;;;;;;;;5007487;28;20193;-72
2021/11/12 08:35:21;;;;;;;66.47;35.10;;;;;;;;;;5010229;28;20285;-71
2021/11/12 08:37:54;;;;;;;70.23;34.43;;;;;;;;;;5026059;28;20173;-71
2021/11/12 08:43:11;;;;;;;64.70;33.00;;;;;;;;;;5023795;28;20190;-71
2021/11/12 08:45:43;;;;;;;67.57;33.07;;;;;;;;;;5009463;28;20206;-72
2021/11/12 08:48:13;;;;;;;63.90;31.93;;;;;;;;;;5016302;28;20412;-71
2021/11/12 08:50:39;;;;;;;61.23;30.77;;;;;;;;;;5015288;28;20193;-71
2021/11/12 08:53:10;;;;;;;52.13;29.37;;;;;;;;;;5022131;28;20190;-71
2021/11/12 08:55:37;;;;;;;55.63;29.90;;;;;;;;;;5015590;28;20198;-71
2021/11/12 08:58:06;;;;;;;57.77;28.83;;;;;;;;;;5020145;28;20193;-72
2021/11/12 09:00:32;;;;;;;59.53;30.60;;;;;;;;;;5014113;28;20185;-71
2021/11/12 09:02:58;;;;;;;57.33;29.13;;;;;;;;;;5018960;28;20204;-71
2021/11/12 09:05:25;;;;;;;63.63;28.77;;;;;;;;;;5012139;28;20528;-71
2021/11/12 09:07:51;;;;;;;54.27;28.73;;;;;;;;;;5020555;28;21621;-72
2021/11/12 09:10:19;;;;;;;53.10;28.47;;;;;;;;;;5024022;28;20247;-72
2021/11/12 09:12:48;;;;;;;51.43;26.83;;;;;;;;;;5015706;28;20190;-72
2021/11/12 09:15:26;;;;;;;47.80;27.83;;;;;;;;;;5016552;28;20616;-71
2021/11/12 09:17:52;;;;;;;52.37;26.63;;;;;;;;;;5009881;28;20190;-71
2021/11/12 09:20:18;;;;;;;55.13;26.60;;;;;;;;;;5022200;28;20184;-73
2021/11/12 09:22:44;;;;;;;51.37;26.83;;;;;;;;;;5012519;28;20182;-72
2021/11/12 09:25:10;;;;;;;50.70;25.57;;;;;;;;;;5021732;28;20183;-71
2021/11/12 09:27:36;;;;;;;49.60;25.70;;;;;;;;;;5011128;28;20194;-71
2021/11/12 09:30:04;;;;;;;46.80;25.50;;;;;;;;;;5020210;28;20240;-70
2021/11/12 09:32:30;;;;;;;44.90;24.03;;;;;;;;;;5013392;28;20194;-71
2021/11/12 09:34:55;;;;;;;50.23;25.90;;;;;;;;;;5019183;28;20540;-70
2021/11/12 09:37:21;;;;;;;50.77;25.53;;;;;;;;;;5014583;28;20186;-70
2021/11/12 09:39:57;;;;;;;47.67;27.00;;;;;;;;;;5023983;28;20178;-70
2021/11/12 09:42:24;;;;;;;45.60;25.93;;;;;;;;;;5012603;28;20194;-71
2021/11/12 09:44:51;;;;;;;48.87;27.67;;;;;;;;;;5020599;28;20186;-71
2021/11/12 09:47:23;;;;;;;49.13;26.77;;;;;;;;;;5013787;28;20278;-70
2021/11/12 09:49:50;;;;;;;53.13;28.50;;;;;;;;;;5024498;28;20294;-71
2021/11/12 09:52:16;;;;;;;53.43;30.17;;;;;;;;;;5024172;28;20177;-71
2021/11/12 09:54:41;;;;;;;56.03;32.40;;;;;;;;;;5016742;28;20182;-71
2021/11/12 09:57:07;;;;;;;54.13;31.90;;;;;;;;;;5018982;28;20198;-71
2021/11/12 09:59:33;;;;;;;58.83;33.90;;;;;;;;;;5010305;28;20178;-72
2021/11/12 10:02:02;;;;;;;63.70;35.13;;;;;;;;;;5015856;28;20234;-72
2021/11/12 10:04:28;;;;;;;61.40;34.97;;;;;;;;;;5008763;28;20226;-72
2021/11/12 10:06:57;;;;;;;62.93;34.33;;;;;;;;;;5022403;28;20198;-71
2021/11/12 10:09:22;;;;;;;70.83;36.27;;;;;;;;;;5016924;28;20182;-72
2021/11/12 10:11:53;;;;;;;71.30;38.23;;;;;;;;;;5019823;28;20185;-71
2021/11/12 10:14:40;;;;;;;71.20;38.10;;;;;;;;;;5011764;28;20182;-72
2021/11/12 10:17:07;;;;;;;72.40;40.03;;;;;;;;;;5022493;28;20241;-71
2021/11/12 10:19:41;;;;;;;83.73;41.33;;;;;;;;;;5016082;28;20201;-72
2021/11/12 10:22:07;;;;;;;80.60;41.30;;;;;;;;;;5020739;28;20185;-71
2021/11/12 10:24:35;;;;;;;81.07;43.13;;;;;;;;;;5010696;28;20471;-71
2021/11/12 10:27:13;;;;;;;86.23;44.07;;;;;;;;;;5028151;28;20206;-72
2021/11/12 10:29:48;;;;;;;84.93;42.50;;;;;;;;;;5013639;28;20182;-72
2021/11/12 10:32:18;;;;;;;84.20;42.33;;;;;;;;;;5016598;28;20618;-71
2021/11/12 10:34:45;;;;;;;88.30;43.93;;;;;;;;;;5008335;28;20205;-71
2021/11/12 10:37:21;;;;;;;87.43;43.10;;;;;;;;;;5020755;28;20302;-71
2021/11/12 10:39:57;;;;;;;87.03;42.87;;;;;;;;;;5017724;28;20236;-71
2021/11/12 10:42:25;;;;;;;84.93;40.57;;;;;;;;;;5020599;28;20182;-72
2021/11/12 10:45:19;;;;;;;85.45;43.47;;;;;;;;;;5019159;28;20274;-72
2021/11/12 10:47:59;;;;;;;80.80;38.40;;;;;;;;;;5025388;28;20677;-71
2021/11/12 10:50:27;;;;;;;76.28;39.15;;;;;;;;;;5020540;28;20183;-71
2021/11/12 10:53:18;;;;;;;82.43;40.00;;;;;;;;;;5016238;28;20191;-71
2021/11/12 10:55:56;;;;;;;78.82;39.03;;;;;;;;;;5017541;28;20206;-71
2021/11/12 10:58:22;;;;;;;79.53;38.70;;;;;;;;;;5018999;28;20286;-71
2021/11/12 11:00:49;;;;;;;75.63;37.38;;;;;;;;;;5019129;28;20288;-71
2021/11/12 11:03:16;;;;;;;75.50;37.92;;;;;;;;;;5013540;28;20312;-71
2021/11/12 11:05:47;;;;;;;78.43;38.60;;;;;;;;;;5017715;28;20724;-71
2021/11/12 11:08:21;;;;;;;81.15;39.10;;;;;;;;;;5009403;28;20672;-71
2021/11/12 11:10:54;;;;;;;80.20;38.55;;;;;;;;;;5020534;28;20645;-71
2021/11/12 11:13:28;;;;;;;79.97;38.75;;;;;;;;;;5011997;28;20265;-72
2021/11/12 11:15:55;;;;;;;76.15;38.38;;;;;;;;;;5024192;28;20621;-71
2021/11/12 11:18:25;;;;;;;76.70;38.03;;;;;;;;;;5015573;28;20205;-71
2021/11/12 11:21:11;;;;;;;77.65;39.60;;;;;;;;;;5022208;28;20198;-71
2021/11/12 11:23:42;;;;;;;75.88;38.72;;;;;;;;;;5015502;28;20201;-71
2021/11/12 11:26:08;;;;;;;77.68;40.38;;;;;;;;;;5020844;28;20744;-71
2021/11/12 11:28:35;;;;;;;83.38;38.25;;;;;;;;;;5009460;28;20182;-71
2021/11/12 11:31:04;;;;;;;80.60;39.25;;;;;;;;;;5022868;28;20277;-71
2021/11/12 11:33:30;;;;;;;78.07;38.25;;;;;;;;;;5011103;28;20194;-72
2021/11/12 11:35:56;;;;;;;73.17;38.17;;;;;;;;;;5021771;28;20182;-71
2021/11/12 11:38:26;;;;;;;71.80;38.65;;;;;;;;;;5012022;28;20293;-71
2021/11/12 11:40:52;;;;;;;67.25;36.67;;;;;;;;;;5022531;28;20201;-71
2021/11/12 11:43:18;;;;;;;75.32;38.00;;;;;;;;;;5013274;28;20196;-71
2021/11/12 11:45:47;;;;;;;76.50;38.20;;;;;;;;;;5023571;28;20673;-71
2021/11/12 11:48:15;;;;;;;76.90;39.40;;;;;;;;;;5024419;28;20541;-71
2021/11/12 11:50:56;;;;;;;72.80;38.85;;;;;;;;;;5007871;28;20182;-72
2021/11/12 11:53:23;;;;;;;68.85;36.05;;;;;;;;;;5019257;28;20182;-72
2021/11/12 11:55:49;;;;;;;69.22;36.00;;;;;;;;;;5008170;28;20199;-72
2021/11/12 11:58:36;;;;;;;70.22;37.45;;;;;;;;;;5021312;28;20186;-72
2021/11/12 12:01:16;;;;;;;74.05;38.22;;;;;;;;;;5009391;28;20179;-72
2021/11/12 12:03:45;;;;;;;71.00;37.28;;;;;;;;;;5019834;28;20222;-72
2021/11/12 12:06:20;;;;;;;72.88;38.38;;;;;;;;;;5008488;28;20204;-72
2021/11/12 12:09:01;;;;;;;70.07;36.88;;;;;;;;;;5019701;28;20209;-72
2021/11/12 12:11:26;;;;;;;66.25;37.25;;;;;;;;;;5013691;28;20194;-72
2021/11/12 12:14:20;;;;;;;66.20;36.55;;;;;;;;;;5017295;28;20202;-72
2021/11/12 12:17:10;;;;;;;63.35;34.75;;;;;;;;;;5012952;28;20660;-72
2021/11/12 12:19:56;;;;;;;61.72;34.63;;;;;;;;;;5020363;28;20498;-72
2021/11/12 12:37:00;;;;;;;60.97;34.80;;;;;;;;;;5014876;28;20193;-72
2021/11/12 12:43:02;;;;;;;65.38;34.38;;;;;;;;;;5013795;28;20197;-72
2021/11/12 13:23:10;;;;;;;59.90;34.35;;;;;;;;;;5013070;28;20213;-73
2021/11/12 13:25:39;;;;;;;59.80;34.05;;;;;;;;;;5014032;28;20190;-73
2021/11/12 13:28:28;;;;;;;56.65;33.72;;;;;;;;;;5013838;28;20193;-72
2021/11/12 13:31:12;;;;;;;59.58;34.80;;;;;;;;;;5017828;28;20248;-73
2021/11/12 13:33:48;;;;;;;58.67;33.85;;;;;;;;;;5012678;28;20630;-72
2021/11/12 13:36:23;;;;;;;64.93;35.85;;;;;;;;;;5020462;28;20590;-72
2021/11/12 13:38:53;;;;;;;58.78;34.42;;;;;;;;;;5013345;28;20178;-72
2021/11/12 13:41:21;;;;;;;61.40;36.13;;;;;;;;;;5020482;28;20217;-73
2021/11/12 13:43:49;;;;;;;69.97;37.55;;;;;;;;;;5027931;28;20756;-72
2021/11/12 13:46:15;;;;;;;68.90;37.28;;;;;;;;;;5012592;28;20681;-72
2021/11/12 13:48:46;;;;;;;63.30;36.80;;;;;;;;;;5024653;28;20716;-72
2021/11/12 13:51:11;;;;;;;66.32;36.55;;;;;;;;;;5013973;28;20619;-72
2021/11/12 13:53:37;;;;;;;62.35;34.55;;;;;;;;;;5029588;28;20185;-72
2021/11/12 13:56:08;;;;;;;62.33;34.83;;;;;;;;;;5012500;28;20213;-72
2021/11/12 13:58:34;;;;;;;62.55;35.80;;;;;;;;;;5019498;28;20277;-72
2021/11/12 14:00:59;;;;;;;64.15;36.83;;;;;;;;;;5015484;28;20258;-71
2021/11/12 14:03:33;;;;;;;63.33;36.03;;;;;;;;;;5017259;28;20222;-71
2021/11/12 14:06:04;;;;;;;64.90;36.67;;;;;;;;;;5014177;28;20278;-72
2021/11/12 14:09:01;;;;;;;65.93;36.05;;;;;;;;;;5019848;28;20190;-71
2021/11/12 14:11:29;;;;;;;71.00;36.90;;;;;;;;;;5015824;28;20645;-72
2021/11/12 14:14:05;;;;;;;75.50;39.45;;;;;;;;;;5023371;28;20514;-72
2021/11/12 14:16:37;;;;;;;66.15;36.50;;;;;;;;;;5009610;28;20183;-72
2021/11/12 14:21:45;;;;;;;72.00;38.13;;;;;;;;;;5023352;28;20193;-72
2021/11/12 14:32:39;;;;;;;79.03;39.55;;;;;;;;;;5011740;28;20296;-72
2021/11/12 14:43:25;;;;;;;69.00;36.75;;;;;;;;;;5014338;28;20199;-72
2021/11/12 14:46:19;;;;;;;71.83;38.07;;;;;;;;;;5019281;28;20677;-71
2021/11/12 14:49:12;;;;;;;61.72;34.05;;;;;;;;;;5013001;28;20253;-72
2021/11/12 14:54:44;;;;;;;62.40;34.03;;;;;;;;;;5012844;28;20562;-73
2021/11/12 14:57:22;;;;;;;60.47;33.75;;;;;;;;;;5022905;28;20300;-71
2021/11/12 14:59:50;;;;;;;61.92;33.67;;;;;;;;;;5017775;28;20557;-71
2021/11/12 15:02:15;;;;;;;56.90;31.92;;;;;;;;;;5019774;28;20191;-71
2021/11/12 15:04:41;;;;;;;56.83;32.40;;;;;;;;;;5014421;28;20232;-72
2021/11/12 15:07:07;;;;;;;58.83;31.60;;;;;;;;;;5023402;28;20249;-71
2021/11/12 15:09:35;;;;;;;58.85;32.80;;;;;;;;;;5014073;28;20186;-72
2021/11/12 15:12:06;;;;;;;56.27;32.33;;;;;;;;;;5016905;28;20272;-71
2021/11/12 15:14:35;;;;;;;55.50;31.33;;;;;;;;;;5016320;28;20182;-72
2021/11/12 15:17:06;;;;;;;51.38;30.58;;;;;;;;;;5021375;28;20633;-72
2021/11/12 15:19:34;;;;;;;53.93;29.73;;;;;;;;;;5015013;28;20186;-71
2021/11/12 15:22:12;;;;;;;50.90;30.30;;;;;;;;;;5018838;28;20190;-72
2021/11/12 15:32:30;;;;;;;54.47;29.07;;;;;;;;;;5016858;28;20550;-72
2021/11/12 15:35:03;;;;;;;48.33;27.73;;;;;;;;;;5015938;28;20197;-71
2021/11/12 15:48:07;;;;;;;51.70;28.17;;;;;;;;;;5018752;28;20578;-71
2021/11/12 15:50:57;;;;;;;48.50;27.33;;;;;;;;;;5009551;28;20202;-72
2021/11/12 15:53:27;;;;;;;47.53;25.93;;;;;;;;;;5023356;28;20193;-71
2021/11/12 16:01:54;;;;;;;46.27;26.17;;;;;;;;;;5031363;28;20197;-72
2021/11/12 16:17:17;;;;;;;39.67;23.88;;;;;;;;;;5010667;28;20638;-72
2021/11/12 16:28:00;;;;;;;39.40;21.67;;;;;;;;;;5011360;28;20252;-70
2021/11/12 16:30:30;;;;;;;42.37;22.67;;;;;;;;;;5021072;28;20194;-71
2021/11/12 16:32:58;;;;;;;35.87;21.07;;;;;;;;;;5010407;28;20989;-71
2021/11/12 16:35:26;;;;;;;34.17;20.90;;;;;;;;;;5019916;28;20276;-71
2021/11/12 16:37:57;;;;;;;34.47;20.17;;;;;;;;;;5009821;28;20486;-71
2021/11/12 16:40:28;;;;;;;36.13;19.73;;;;;;;;;;5017519;28;20263;-71
2021/11/12 17:04:14;;;;;;;30.27;17.80;;;;;;;;;;5015619;28;20238;-72
2021/11/12 17:06:52;;;;;;;27.87;17.33;;;;;;;;;;5007221;28;20564;-71
2021/11/12 17:17:44;;;;;;;30.73;18.07;;;;;;;;;;5019322;28;20197;-71
2021/11/12 17:23:36;;;;;;;28.90;16.87;;;;;;;;;;5022005;28;20365;-72
2021/11/12 17:47:38;;;;;;;24.90;14.63;;;;;;;;;;5003514;28;20241;-72
2021/11/12 17:50:15;;;;;;;24.57;14.30;;;;;;;;;;5017530;28;20263;-71
2021/11/12 18:03:42;;;;;;;22.40;13.37;;;;;;;;;;5009618;28;20332;-72
2021/11/12 18:06:14;;;;;;;24.83;13.73;;;;;;;;;;5023849;28;20256;-71
2021/11/12 18:09:08;;;;;;;24.73;14.10;;;;;;;;;;5010745;28;20204;-72
2021/11/12 18:20:29;;;;;;;24.27;14.00;;;;;;;;;;5018567;28;20202;-72
2021/11/12 18:22:38;;;;;;;25.60;13.07;;;;;;;;;;5017731;28;20273;-72
2021/11/12 21:48:24;;;;;;;18.60;12.63;;;;;;;;;;5010234;28;20212;-72
2021/11/12 21:50:55;;;;;;;22.83;12.40;;;;;;;;;;5012050;28;20193;-72
2021/11/12 21:53:22;;;;;;;21.57;12.27;;;;;;;;;;5020949;28;20198;-73
2021/11/12 21:55:52;;;;;;;18.97;12.63;;;;;;;;;;5010254;28;20306;-73
2021/11/12 21:58:18;;;;;;;23.40;13.00;;;;;;;;;;5015989;28;20458;-74
2021/11/12 22:00:46;;;;;;;21.03;12.90;;;;;;;;;;5006648;28;20191;-74
2021/11/12 22:03:12;;;;;;;19.35;12.10;;;;;;;;;;5018724;28;20287;-73
2021/11/12 22:05:38;;;;;;;17.02;11.25;;;;;;;;;;5008515;28;20633;-73
2021/11/12 22:08:03;;;;;;;19.47;12.47;;;;;;;;;;5013291;28;20224;-72
2021/11/12 22:10:29;;;;;;;20.45;12.55;;;;;;;;;;5010466;28;20193;-72
2021/11/12 22:12:54;;;;;;;18.13;12.48;;;;;;;;;;5018637;28;20189;-72
2021/11/12 22:15:20;;;;;;;17.60;11.33;;;;;;;;;;5014445;28;20679;-71
2021/11/12 22:17:45;;;;;;;23.67;12.60;;;;;;;;;;5012642;28;20510;-71
2021/11/12 22:20:11;;;;;;;21.90;12.25;;;;;;;;;;5015330;28;20179;-72
2021/11/12 22:22:38;;;;;;;20.25;12.27;;;;;;;;;;5009969;28;20631;-71
2021/11/12 22:25:04;;;;;;;18.40;11.75;;;;;;;;;;5017843;28;20299;-71
2021/11/12 22:27:30;;;;;;;21.00;13.07;;;;;;;;;;5005354;28;20272;-71
2021/11/12 22:29:55;;;;;;;18.70;12.10;;;;;;;;;;5015442;28;20207;-72
2021/11/12 22:32:21;;;;;;;22.23;12.13;;;;;;;;;;5014803;28;20543;-72
2021/11/12 22:34:48;;;;;;;22.90;12.53;;;;;;;;;;5019773;28;20178;-73
2021/11/12 22:37:13;;;;;;;18.33;12.77;;;;;;;;;;5014268;28;20178;-73
2021/11/12 22:39:38;;;;;;;17.15;11.18;;;;;;;;;;5024286;28;20213;-73
2021/11/12 22:42:04;;;;;;;18.63;12.10;;;;;;;;;;5014178;28;20544;-73
2021/11/12 22:44:30;;;;;;;18.93;12.37;;;;;;;;;;5023633;28;20196;-72
2021/11/12 22:46:55;;;;;;;20.63;11.67;;;;;;;;;;5022818;28;20297;-73
2021/11/12 22:49:20;;;;;;;18.27;12.20;;;;;;;;;;5015081;28;20189;-73
2021/11/12 22:51:46;;;;;;;21.23;12.03;;;;;;;;;;5024544;28;20200;-72
2021/11/12 22:54:11;;;;;;;17.65;11.98;;;;;;;;;;5011464;28;20281;-72
2021/11/12 22:56:36;;;;;;;20.23;12.65;;;;;;;;;;5026944;28;20293;-72
2021/11/12 22:59:02;;;;;;;20.08;12.15;;;;;;;;;;5017267;28;20217;-72
2021/11/12 23:01:31;;;;;;;19.65;13.02;;;;;;;;;;5025349;28;20190;-73
2021/11/12 23:03:57;;;;;;;22.60;12.65;;;;;;;;;;5009047;28;20597;-71
2021/11/12 23:06:23;;;;;;;20.48;12.98;;;;;;;;;;5028219;28;20198;-72
2021/11/12 23:08:48;;;;;;;21.02;12.63;;;;;;;;;;5016915;28;20186;-73
2021/11/12 23:11:14;;;;;;;19.40;12.05;;;;;;;;;;5024119;28;20186;-73
2021/11/12 23:13:41;;;;;;;20.50;12.75;;;;;;;;;;5015032;28;20193;-73
2021/11/12 23:16:07;;;;;;;16.85;11.63;;;;;;;;;;5027336;28;20559;-73
2021/11/12 23:18:33;;;;;;;22.55;11.93;;;;;;;;;;5028392;28;20182;-72
2021/11/12 23:20:59;;;;;;;18.67;12.27;;;;;;;;;;5013275;28;20500;-73
2021/11/12 23:23:25;;;;;;;20.35;12.90;;;;;;;;;;5025929;28;20281;-74
2021/11/12 23:25:51;;;;;;;17.55;11.80;;;;;;;;;;5018507;28;20302;-72
2021/11/12 23:28:16;;;;;;;21.25;12.77;;;;;;;;;;5025893;28;20210;-72
2021/11/12 23:30:42;;;;;;;20.67;12.88;;;;;;;;;;5019197;28;20198;-71
2021/11/12 23:33:08;;;;;;;19.65;12.65;;;;;;;;;;5019667;28;20188;-70
2021/11/12 23:35:33;;;;;;;19.13;12.65;;;;;;;;;;5017722;28;20231;-72
2021/11/12 23:37:59;;;;;;;23.25;12.90;;;;;;;;;;5024074;28;20285;-72
2021/11/12 23:40:24;;;;;;;22.47;12.80;;;;;;;;;;5015896;28;20193;-71
2021/11/12 23:42:50;;;;;;;20.33;12.98;;;;;;;;;;5026396;28;20194;-71
2021/11/12 23:45:17;;;;;;;21.58;13.93;;;;;;;;;;5007779;28;20202;-74
2021/11/12 23:47:43;;;;;;;21.30;13.20;;;;;;;;;;5025404;28;20232;-74
2021/11/12 23:50:09;;;;;;;23.13;13.55;;;;;;;;;;5014760;28;20237;-72
2021/11/12 23:52:35;;;;;;;22.80;14.07;;;;;;;;;;5015547;28;20190;-72
2021/11/12 23:55:02;;;;;;;23.30;12.80;;;;;;;;;;5017430;28;20249;-72
2021/11/12 23:57:28;;;;;;;23.38;13.68;;;;;;;;;;5013707;28;20619;-72
2021/11/12 23:59:53;;;;;;;21.70;12.95;;;;;;;;;;5015292;28;20225;-72
